Terminal Aerodrome Forecast
Issued by NWS

Home | Current Version | Previous Version | Text Only | Print | Product List | Glossary On
Versions: 1 2 3 4 5 6 7 8 9 10 11 12 13 14 15 16 17 18 19 20 21 22
000
FTUS43 KILX 172203 AAA
TAFDEC
TAF AMD
KDEC 172203Z 1722/1818 25012KT 5SM BR OVC010
      TEMPO 1722/1724 OVC006
     FM180100 26007KT P6SM SCT150
     FM180800 VRB03KT P6SM FEW250
     FM181400 17012G20KT P6SM FEW250=

USA.gov is the U.S. government's official web portal to all federal, state and local government web resources and services.